Huvudsida
METAR-TAF:

METAR-TAF

Flygplatser :

La Chaux-de-Fonds, Schweiz

latitud: 47-05-03N, longitud: 006-47-37E, höjd: 1027 m

Aktuellt väderrapport

Denna rapport gjordes för 34 minuter sedan, klockan 14:50 UTC
Vind 12 kt från nord/nordost
Temperatur 0°C
Fuktighet 86%
Tryck 1016 hPa
Sikt 10 km eller mer
Mulet på en höjd av 600 ft
lätt snö

METAR: LSGC 291450Z 03012KT 9999 -SN OVC006 M00/M02 Q1016

Tid: 17:24 (15:24 UTC)

Väderprognos

Denna rapport gjordes för 59 minuter sedan, klockan 14:25 UTC
Prognos gäller från 29 kl. 15 UTC till 29 kl. 24 UTC
Vind 10 kt från nordost
Sikt 10 km eller mer
Brutna moln på en höjd av 1000 ft
Blir
från 29 kl. 15 UTC till 29 kl. 17 UTC
Sikt: 1500 m
Brutna moln på en höjd av 400 ft
snö

TAF: LSGC 291425Z 2915/2924 05010KT 9999 BKN010 BECMG 2915/2917 1500 SN BKN004

Aktuella väderrapporter och prognoser från 4000 flygplatser (METAR- och TAF-rapporter).

De tillgängliga stationerna syns som gula och röda prickar på kartan.

För musen över prickarna för att se namnen på stationerna.

Klicka sedan för att få väderrapporter och prognoser.

För att ändra kartan: Klicka på de gröna knapparna med ett svart kors på för att zooma in; den gröna knappen med ett streck på för att zooma ut; eller på de gröna pilarna för angränsande kartor.


METAR-TAF: